Airport View

Enter AWOS ICAO identifier for current METAR.

ex. KFNL

KAOH 182053Z AUTO A3003 RMK AO2 SLPNO PWINO FZRANO

19 Oct 2019 22:31

Frequency: 128.725

Phone: 419-224-6098

Other Area AWOS: KAXV - KOWX - KEDJ - KFDY

TAF KFDY 191737Z 1918/2018 16009KT P6SM SCT250 FM200000 VRB04KT P6SM SCT045 BKN180